Terminal Aerodrome Forecast
Issued by NWS Wichita, KS

Home | Current Version | Previous Version | Text Only | Print | Product List | Glossary Off
Versions: 1 2 3 4 5 6 7 8 9 10 11 12 13 14 15 16 17 18 19 20 21 22

000
FTUS43 KICT 181726
TAFICT
TAF
KICT 181726Z 1818/1918 14010KT P6SM SCT030 BKN070
     FM182200 15010KT P6SM VCTS SCT020 BKN040CB
      TEMPO 1822/1902 4SM TSRA BR BKN025CB
     FM190200 15006KT P6SM VCTS SCT020 BKN035CB
     FM191200 32005KT P6SM OVC100=

USA.gov is the U.S. government's official web portal to all federal, state and local government web resources and services.